createdAt,value
2019-03-04T00:00:30.549Z,99526.36
2019-03-04T00:02:04.690Z,99525.79
2019-03-04T00:03:38.402Z,99518.64
2019-03-04T00:05:12.037Z,99519.66
2019-03-04T00:06:45.663Z,99522.84
2019-03-04T00:08:19.581Z,99523.67
2019-03-04T00:09:53.793Z,99527.41
2019-03-04T00:11:27.425Z,99520.42
2019-03-04T00:13:01.047Z,99516.79
2019-03-04T00:14:36.145Z,99513.05
2019-03-04T00:16:09.762Z,99514.39
2019-03-04T00:17:43.983Z,99513.21
2019-03-04T00:19:17.675Z,99509.55
2019-03-04T00:20:51.692Z,99505.98
2019-03-04T00:22:25.351Z,99505.44
2019-03-04T00:23:59.057Z,99506.44
2019-03-04T00:25:32.955Z,99511.27
2019-03-04T00:27:07.092Z,99506.53
2019-03-04T00:28:40.706Z,99506.20
2019-03-04T00:30:14.353Z,99502.33
2019-03-04T00:31:47.978Z,99499.74
2019-03-04T00:33:21.999Z,99501.92
2019-03-04T00:34:55.610Z,99500.00
2019-03-04T00:36:29.249Z,99497.15
2019-03-04T00:38:04.046Z,99494.05
2019-03-04T00:39:38.025Z,99496.30
2019-03-04T00:41:11.743Z,99498.31
2019-03-04T00:42:45.532Z,99493.30
2019-03-04T00:44:19.258Z,99486.71
2019-03-04T00:45:53.197Z,99487.78
2019-03-04T00:47:26.996Z,99486.27
2019-03-04T00:49:02.272Z,99487.53
2019-03-04T00:50:35.909Z,99475.86
2019-03-04T00:52:10.037Z,99487.23
2019-03-04T00:53:43.717Z,99487.52
2019-03-04T00:55:18.167Z,99485.86
2019-03-04T00:56:52.314Z,99491.91
2019-03-04T00:58:27.893Z,99490.23
2019-03-04T01:00:01.600Z,99490.25
2019-03-04T01:01:35.249Z,99489.53
2019-03-04T01:03:09.478Z,99479.30
2019-03-04T01:04:43.612Z,99484.09
2019-03-04T01:06:18.261Z,99455.16
2019-03-04T01:07:51.902Z,99476.13
2019-03-04T01:09:27.711Z,99478.02
2019-03-04T01:11:01.970Z,99479.46
2019-03-04T01:12:36.111Z,99474.68
2019-03-04T01:14:09.750Z,99474.77
2019-03-04T01:15:43.400Z,99472.94
2019-03-04T01:17:17.792Z,99478.90
2019-03-04T01:18:51.481Z,99476.78
2019-03-04T01:20:25.190Z,99476.11
2019-03-04T01:21:58.888Z,99474.22
2019-03-04T01:23:32.889Z,99471.61
2019-03-04T01:25:09.584Z,99467.02
2019-03-04T01:26:45.839Z,99469.22
2019-03-04T01:28:19.862Z,99468.41
2019-03-04T01:29:53.799Z,99473.20
2019-03-04T01:31:27.451Z,99468.19
2019-03-04T01:33:01.132Z,99473.73
2019-03-04T01:34:34.760Z,99469.36
2019-03-04T01:36:08.802Z,99471.20
2019-03-04T01:37:42.535Z,99463.06
2019-03-04T01:39:16.201Z,99469.52
2019-03-04T01:40:49.836Z,99464.36
2019-03-04T01:42:24.002Z,99464.91
2019-03-04T01:43:57.991Z,99458.50
2019-03-04T01:45:31.623Z,99459.41
2019-03-04T01:47:05.351Z,99460.51
2019-03-04T01:48:39.294Z,99459.41
2019-03-04T01:50:17.230Z,99447.55
2019-03-04T01:51:50.891Z,99454.36
2019-03-04T01:53:24.612Z,99449.39
2019-03-04T01:54:58.880Z,99448.69
2019-03-04T01:56:32.622Z,99459.75
2019-03-04T01:58:06.347Z,99451.98
2019-03-04T01:59:40.197Z,99459.31
2019-03-04T02:01:14.188Z,99459.69
2019-03-04T02:02:48.045Z,99456.99
2019-03-04T02:04:21.747Z,99460.66
2019-03-04T02:05:55.398Z,99455.56
2019-03-04T02:07:29.476Z,99460.75
2019-03-04T02:09:03.361Z,99459.39
2019-03-04T02:10:37.023Z,99457.99
2019-03-04T02:12:10.690Z,99455.85
2019-03-04T02:13:44.572Z,99453.76
2019-03-04T02:15:20.154Z,99455.48
2019-03-04T02:16:53.849Z,99466.82
2019-03-04T02:18:27.445Z,99466.09
2019-03-04T02:20:01.762Z,99462.72
2019-03-04T02:21:36.287Z,99464.47
2019-03-04T02:23:09.966Z,99461.52
2019-03-04T02:24:43.668Z,99451.34
2019-03-04T02:26:18.961Z,99464.41
2019-03-04T02:27:55.917Z,99466.82
2019-03-04T02:29:29.602Z,99465.18
2019-03-04T02:31:03.264Z,99468.69
2019-03-04T02:32:37.135Z,99464.31
2019-03-04T02:34:10.767Z,99459.20
2019-03-04T02:35:44.440Z,99461.52
2019-03-04T02:37:18.178Z,99452.67
2019-03-04T02:38:56.522Z,99464.27
2019-03-04T02:40:30.221Z,99463.03
2019-03-04T02:42:03.922Z,99460.83
2019-03-04T02:43:37.615Z,99465.94
2019-03-04T02:45:14.383Z,99456.20
2019-03-04T02:46:48.407Z,99454.94
2019-03-04T02:48:23.577Z,99464.19
2019-03-04T02:49:57.179Z,99458.61
2019-03-04T02:51:31.115Z,99455.94
2019-03-04T02:53:04.862Z,99460.59
2019-03-04T02:54:38.559Z,99463.14
2019-03-04T02:56:12.202Z,99458.14
2019-03-04T02:57:46.356Z,99456.98
2019-03-04T02:59:20.178Z,99445.95
2019-03-04T03:00:53.905Z,99450.54
2019-03-04T03:02:27.598Z,99452.36
2019-03-04T03:04:01.710Z,99463.70
2019-03-04T03:05:35.498Z,99459.07
2019-03-04T03:07:09.134Z,99459.58
2019-03-04T03:08:42.765Z,99454.34
2019-03-04T03:10:16.700Z,99456.64
2019-03-04T03:11:50.467Z,99453.56
2019-03-04T03:13:24.165Z,99457.75
2019-03-04T03:14:57.902Z,99457.39
2019-03-04T03:16:32.109Z,99461.96
2019-03-04T03:18:06.466Z,99455.75
2019-03-04T03:19:40.186Z,99453.82
2019-03-04T03:21:13.820Z,99450.83
2019-03-04T03:22:47.912Z,99448.95
2019-03-04T03:24:21.669Z,99440.92
2019-03-04T03:25:55.330Z,99449.63
2019-03-04T03:27:28.994Z,99450.23
2019-03-04T03:29:03.120Z,99447.42
2019-03-04T03:30:36.858Z,99445.33
2019-03-04T03:32:11.480Z,99447.67
2019-03-04T03:33:45.158Z,99442.69
2019-03-04T03:35:18.996Z,99440.05
2019-03-04T03:36:52.652Z,99439.41
2019-03-04T03:38:26.353Z,99435.33
2019-03-04T03:40:00.105Z,99434.32
2019-03-04T03:41:34.164Z,99437.91
2019-03-04T03:43:07.814Z,99439.36
2019-03-04T03:44:41.459Z,99436.94
2019-03-04T03:46:15.236Z,99430.87
2019-03-04T03:47:49.402Z,99431.16
2019-03-04T03:49:23.136Z,99441.07
2019-03-04T03:50:56.879Z,99440.43
2019-03-04T03:52:30.562Z,99430.23
2019-03-04T03:54:04.484Z,99424.83
2019-03-04T03:55:38.203Z,99430.06
2019-03-04T03:57:11.964Z,99433.64
2019-03-04T03:58:45.596Z,99425.69
2019-03-04T04:00:26.571Z,99433.55
2019-03-04T04:02:00.331Z,99425.98
2019-03-04T04:03:34.481Z,99427.20
2019-03-04T04:05:08.507Z,99426.78
2019-03-04T04:06:42.342Z,99425.33
2019-03-04T04:08:16.038Z,99428.47
2019-03-04T04:09:49.676Z,99423.70
2019-03-04T04:11:23.373Z,99423.39
2019-03-04T04:12:57.352Z,99409.23
2019-03-04T04:14:31.038Z,99424.78
2019-03-04T04:16:04.679Z,99417.80
2019-03-04T04:17:38.317Z,99416.75
2019-03-04T04:19:12.347Z,99423.05
2019-03-04T04:20:46.057Z,99426.81
2019-03-04T04:22:19.724Z,99422.91
2019-03-04T04:23:53.362Z,99425.19
2019-03-04T04:25:27.253Z,99421.84
2019-03-04T04:27:01.001Z,99422.16
2019-03-04T04:28:35.212Z,99420.95
2019-03-04T04:30:12.196Z,99418.95
2019-03-04T04:31:46.031Z,99422.46
2019-03-04T04:33:19.760Z,99421.48
2019-03-04T04:34:53.981Z,99415.02
2019-03-04T04:36:27.730Z,99414.86
2019-03-04T04:38:01.940Z,99417.95
2019-03-04T04:39:37.214Z,99411.95
2019-03-04T04:41:10.939Z,99418.28
2019-03-04T04:42:44.653Z,99418.76
2019-03-04T04:44:18.568Z,99417.71
2019-03-04T04:45:52.201Z,99413.74
2019-03-04T04:47:25.851Z,99418.69
2019-03-04T04:48:59.619Z,99414.97
2019-03-04T04:50:34.058Z,99413.05
2019-03-04T04:52:07.735Z,99410.17
2019-03-04T04:53:41.418Z,99413.58
2019-03-04T04:55:15.042Z,99413.64
2019-03-04T04:56:48.953Z,99416.78
2019-03-04T04:58:22.570Z,99413.97
2019-03-04T04:59:56.280Z,99415.72
2019-03-04T05:01:29.931Z,99418.31
2019-03-04T05:03:04.830Z,99415.23
2019-03-04T05:04:38.604Z,99417.13
2019-03-04T05:06:13.070Z,99424.66
2019-03-04T05:07:46.945Z,99417.47
2019-03-04T05:09:21.187Z,99421.30
2019-03-04T05:10:54.909Z,99420.39
2019-03-04T05:12:28.713Z,99413.26
2019-03-04T05:14:02.445Z,99416.45
2019-03-04T05:15:36.271Z,99400.13
2019-03-04T05:17:09.991Z,99413.64
2019-03-04T05:18:43.753Z,99407.56
2019-03-04T05:20:22.531Z,99406.54
2019-03-04T05:21:57.931Z,99400.59
2019-03-04T05:23:31.569Z,99406.55
2019-03-04T05:25:05.672Z,99400.88
2019-03-04T05:26:39.322Z,99402.89
2019-03-04T05:28:13.218Z,99401.55
2019-03-04T05:29:48.536Z,99398.86
2019-03-04T05:31:22.225Z,99407.45
2019-03-04T05:32:55.866Z,99398.92
2019-03-04T05:34:30.506Z,99403.20
2019-03-04T05:36:04.212Z,99405.52
2019-03-04T05:37:37.835Z,99399.57
2019-03-04T05:39:11.555Z,99402.42
2019-03-04T05:40:45.563Z,99403.52
2019-03-04T05:42:19.309Z,99401.08
2019-03-04T05:43:56.031Z,99401.14
2019-03-04T05:45:29.743Z,99402.52
2019-03-04T05:47:04.034Z,99404.44
2019-03-04T05:48:37.699Z,99401.59
2019-03-04T05:50:16.984Z,99407.63
2019-03-04T05:51:50.621Z,99407.80
2019-03-04T05:53:24.530Z,99405.56
2019-03-04T05:54:58.206Z,99407.44
2019-03-04T05:56:31.927Z,99412.22
2019-03-04T05:58:05.602Z,99414.30
2019-03-04T05:59:39.523Z,99413.95
2019-03-04T06:01:18.924Z,99416.59
2019-03-04T06:02:54.602Z,99420.51
2019-03-04T06:04:28.263Z,99425.02
2019-03-04T06:06:02.207Z,99421.44
2019-03-04T06:07:37.500Z,99419.00
2019-03-04T06:09:12.906Z,99423.14
2019-03-04T06:10:46.639Z,99418.73
2019-03-04T06:12:21.487Z,99417.78
2019-03-04T06:13:55.188Z,99414.67
2019-03-04T06:15:30.787Z,99417.08
2019-03-04T06:17:04.394Z,99414.27
2019-03-04T06:18:38.448Z,99414.08
2019-03-04T06:20:14.817Z,99419.77
2019-03-04T06:21:49.072Z,99415.38
2019-03-04T06:23:23.324Z,99416.66
2019-03-04T06:24:58.050Z,99421.20
2019-03-04T06:26:32.354Z,99420.92
2019-03-04T06:28:06.633Z,99411.73
2019-03-04T06:29:40.955Z,99411.86
2019-03-04T06:31:15.595Z,99415.16
2019-03-04T06:32:49.796Z,99417.91
2019-03-04T06:34:26.993Z,99421.96
2019-03-04T06:36:01.214Z,99420.19
2019-03-04T06:37:36.174Z,99422.94
2019-03-04T06:39:10.391Z,99417.49
2019-03-04T06:40:44.728Z,99418.41
2019-03-04T06:42:18.973Z,99419.09
2019-03-04T06:43:53.749Z,99418.01
2019-03-04T06:45:28.026Z,99423.64
2019-03-04T06:47:02.291Z,99418.00
2019-03-04T06:48:36.511Z,99423.59
2019-03-04T06:50:39.809Z,99421.89
2019-03-04T06:52:14.105Z,99418.78
2019-03-04T06:54:12.182Z,99421.73
2019-03-04T06:56:11.878Z,99423.30
2019-03-04T06:57:46.124Z,99414.87
2019-03-04T06:59:26.246Z,99422.53
2019-03-04T07:01:03.747Z,99416.14
2019-03-04T07:02:46.207Z,99408.91
2019-03-04T07:04:29.084Z,99413.17
2019-03-04T07:06:04.837Z,99415.84
2019-03-04T07:07:39.181Z,99411.89
2019-03-04T07:09:14.399Z,99417.69
2019-03-04T07:10:48.620Z,99417.03
2019-03-04T07:12:22.845Z,99413.92
2019-03-04T07:13:57.095Z,99412.41
2019-03-04T07:15:31.772Z,99412.77
2019-03-04T07:17:05.974Z,99413.99
2019-03-04T07:18:40.205Z,99415.36
2019-03-04T07:20:16.924Z,99408.02
2019-03-04T07:21:51.354Z,99415.23
2019-03-04T07:23:25.682Z,99409.40
2019-03-04T07:24:59.979Z,99411.97
2019-03-04T07:26:34.276Z,99409.34
2019-03-04T07:28:08.625Z,99409.62
2019-03-04T07:29:42.909Z,99407.09
2019-03-04T07:31:17.208Z,99405.70
2019-03-04T07:32:51.500Z,99408.55
2019-03-04T07:34:26.159Z,99407.34
2019-03-04T07:36:00.503Z,99399.95
2019-03-04T07:37:34.498Z,99401.41
2019-03-04T07:39:11.013Z,99396.58
2019-03-04T07:40:46.263Z,99390.53
2019-03-04T07:42:20.503Z,99390.20
2019-03-04T07:43:54.735Z,99383.06
2019-03-04T07:45:29.078Z,99381.30
2019-03-04T07:47:03.711Z,99376.98
2019-03-04T07:48:37.942Z,99380.20
2019-03-04T07:50:12.542Z,99381.30
2019-03-04T07:51:46.876Z,99379.00
2019-03-04T07:53:21.452Z,99378.13
2019-03-04T07:54:55.783Z,99378.48
2019-03-04T07:56:30.379Z,99371.59
2019-03-04T07:58:05.017Z,99377.11
2019-03-04T07:59:39.355Z,99372.34
2019-03-04T08:01:13.627Z,99369.55
2019-03-04T08:02:47.983Z,99361.84
2019-03-04T08:04:22.196Z,99363.43
2019-03-04T08:05:57.761Z,99356.59
2019-03-04T08:07:37.702Z,99361.06
2019-03-04T08:09:14.922Z,99359.00
2019-03-04T08:11:25.783Z,99363.64
2019-03-04T08:13:03.168Z,99354.14
2019-03-04T08:14:37.460Z,99352.51
2019-03-04T08:16:12.426Z,99352.16
2019-03-04T08:17:46.880Z,99352.68
2019-03-04T08:19:21.092Z,99350.36
2019-03-04T08:20:55.313Z,99342.75
2019-03-04T08:22:29.552Z,99347.27
2019-03-04T08:24:04.151Z,99346.02
2019-03-04T08:25:38.383Z,99341.24
2019-03-04T08:27:12.696Z,99343.49
2019-03-04T08:28:46.891Z,99336.38
2019-03-04T08:30:22.142Z,99335.34
2019-03-04T08:31:56.391Z,99332.08
2019-03-04T08:33:30.626Z,99329.43
2019-03-04T08:35:05.248Z,99328.40
2019-03-04T08:36:39.990Z,99319.61
2019-03-04T08:38:14.243Z,99324.50
2019-03-04T08:39:48.471Z,99319.95
2019-03-04T08:41:22.756Z,99314.59
2019-03-04T08:42:57.653Z,99319.81
2019-03-04T08:44:31.996Z,99314.18
2019-03-04T08:46:06.337Z,99316.31
2019-03-04T08:47:40.655Z,99318.13
2019-03-04T08:49:15.082Z,99312.77
2019-03-04T08:50:49.439Z,99309.73
2019-03-04T08:52:23.750Z,99306.14
2019-03-04T08:53:57.997Z,99306.64
2019-03-04T08:55:32.648Z,99305.80
2019-03-04T08:57:06.925Z,99268.50
2019-03-04T08:58:41.290Z,99306.33
2019-03-04T09:00:21.310Z,99304.23
2019-03-04T09:01:55.758Z,99300.59
2019-03-04T09:03:30.028Z,99300.66
2019-03-04T09:05:07.529Z,99303.59
2019-03-04T09:06:41.841Z,99296.93
2019-03-04T09:08:16.401Z,99297.92
2019-03-04T09:09:51.203Z,99297.14
2019-03-04T09:11:25.428Z,99291.33
2019-03-04T09:12:59.757Z,99292.14
2019-03-04T09:14:34.243Z,99289.48
2019-03-04T09:16:08.833Z,99290.23
2019-03-04T09:17:43.194Z,99282.05
2019-03-04T09:19:17.411Z,99281.60
2019-03-04T09:20:52.056Z,99277.16
2019-03-04T09:22:26.274Z,99283.45
2019-03-04T09:24:00.498Z,99281.72
2019-03-04T09:25:37.655Z,99272.41
2019-03-04T09:27:12.360Z,99271.72
2019-03-04T09:28:48.071Z,99273.98
2019-03-04T09:30:22.976Z,99268.29
2019-03-04T09:31:57.463Z,99270.30
2019-03-04T09:33:31.981Z,99264.22
2019-03-04T09:35:10.355Z,99263.62
2019-03-04T09:36:44.599Z,99258.38
2019-03-04T09:38:18.864Z,99261.86
2019-03-04T09:39:53.507Z,99254.31
2019-03-04T09:41:27.905Z,99250.09
2019-03-04T09:43:02.900Z,99252.01
2019-03-04T09:44:37.112Z,99243.65
2019-03-04T09:46:11.634Z,99247.09
2019-03-04T09:47:46.502Z,99242.75
2019-03-04T09:49:20.838Z,99241.44
2019-03-04T09:50:55.369Z,99236.13
2019-03-04T09:52:29.802Z,99233.54
2019-03-04T09:54:04.138Z,99230.94
2019-03-04T09:55:38.506Z,99231.25
2019-03-04T09:57:12.766Z,99224.98
2019-03-04T09:58:47.275Z,99225.97
2019-03-04T10:00:38.857Z,99215.55
2019-03-04T10:02:13.624Z,99213.22
2019-03-04T10:03:53.772Z,99205.55
2019-03-04T10:05:47.419Z,99202.42
2019-03-04T10:07:28.007Z,99205.53
2019-03-04T10:09:23.626Z,99195.63
2019-03-04T10:11:12.875Z,99194.69
2019-03-04T10:13:07.921Z,99190.75
2019-03-04T10:14:56.925Z,99188.72
2019-03-04T10:16:55.150Z,99191.25
2019-03-04T10:18:44.050Z,99185.13
2019-03-04T10:20:33.307Z,99181.70
2019-03-04T10:22:19.387Z,99176.66
2019-03-04T10:24:03.681Z,99173.97
2019-03-04T10:25:57.606Z,99173.73
2019-03-04T10:27:46.621Z,99167.38
2019-03-04T10:29:44.059Z,99162.56
2019-03-04T10:31:24.390Z,99161.83
2019-03-04T10:33:24.137Z,99153.66
2019-03-04T10:35:15.773Z,99149.83
2019-03-04T10:37:02.194Z,99149.53
2019-03-04T10:38:57.219Z,99136.97
2019-03-04T10:40:39.985Z,99140.06
2019-03-04T10:42:35.393Z,99137.00
2019-03-04T10:44:21.254Z,99126.94
2019-03-04T10:46:28.796Z,99120.70
2019-03-04T10:48:03.694Z,99120.88
2019-03-04T10:49:37.909Z,99106.97
2019-03-04T10:51:12.479Z,99109.33
2019-03-04T10:52:46.823Z,99100.14
2019-03-04T10:54:21.458Z,99108.67
2019-03-04T10:55:55.675Z,99102.98
2019-03-04T10:57:29.972Z,99096.91
2019-03-04T10:59:04.207Z,99095.36
2019-03-04T11:00:38.899Z,99098.42
2019-03-04T11:02:13.135Z,99096.36
2019-03-04T11:03:47.336Z,99095.69
2019-03-04T11:05:21.554Z,99093.80
2019-03-04T11:06:56.566Z,99093.69
2019-03-04T11:08:30.779Z,99084.06
2019-03-04T11:10:07.938Z,99086.31
2019-03-04T11:11:44.698Z,99087.03
2019-03-04T11:13:19.531Z,99079.05
2019-03-04T11:14:55.429Z,99072.88
2019-03-04T11:16:29.649Z,99068.31
2019-03-04T11:18:03.954Z,99068.94
2019-03-04T11:19:38.395Z,99060.50
2019-03-04T11:21:12.668Z,99061.07
2019-03-04T11:22:47.423Z,99059.84
2019-03-04T11:24:21.703Z,99057.45
2019-03-04T11:25:56.270Z,99048.93
2019-03-04T11:27:31.954Z,99056.79
2019-03-04T11:29:06.385Z,99054.58
2019-03-04T11:30:41.019Z,99048.33
2019-03-04T11:32:15.764Z,99045.70
2019-03-04T11:33:50.040Z,99039.88
2019-03-04T11:35:24.320Z,99033.39
2019-03-04T11:37:00.020Z,99030.44
2019-03-04T11:38:40.393Z,99036.88
2019-03-04T11:40:31.128Z,99032.92
2019-03-04T11:42:05.362Z,99023.09
2019-03-04T11:43:40.637Z,99020.63
2019-03-04T11:45:17.597Z,99020.55
2019-03-04T11:46:51.863Z,99018.20
2019-03-04T11:48:26.067Z,99011.74
2019-03-04T11:50:00.299Z,99016.57
2019-03-04T11:51:34.848Z,99012.25
2019-03-04T11:53:09.095Z,99013.52
2019-03-04T11:54:44.795Z,99010.98
2019-03-04T11:56:19.090Z,99007.45
2019-03-04T11:57:53.922Z,99010.91
2019-03-04T11:59:28.206Z,99005.02
2019-03-04T12:01:12.917Z,99002.95
2019-03-04T12:02:47.210Z,98996.12
2019-03-04T12:04:21.822Z,99004.73
2019-03-04T12:05:56.106Z,98997.61
2019-03-04T12:07:30.416Z,98996.78
2019-03-04T12:09:07.636Z,98993.63
2019-03-04T12:10:42.542Z,98989.35
2019-03-04T12:12:16.901Z,98986.83
2019-03-04T12:13:51.105Z,98981.02
2019-03-04T12:15:25.399Z,98983.31
2019-03-04T12:17:00.194Z,98984.11
2019-03-04T12:18:34.575Z,98984.34
2019-03-04T12:20:11.589Z,98981.34
2019-03-04T12:21:47.826Z,98982.69
2019-03-04T12:23:25.185Z,98973.14
2019-03-04T12:24:59.403Z,98977.13
2019-03-04T12:26:33.599Z,98971.37
2019-03-04T12:28:07.810Z,98968.14
2019-03-04T12:29:42.567Z,98965.17
2019-03-04T12:31:16.854Z,98966.07
2019-03-04T12:32:52.450Z,98967.46
2019-03-04T12:34:26.879Z,98957.59
2019-03-04T12:36:01.656Z,98954.01
2019-03-04T12:37:35.862Z,98954.98
2019-03-04T12:39:11.771Z,98954.91
2019-03-04T12:40:46.039Z,98957.03
2019-03-04T12:42:20.460Z,98953.61
2019-03-04T12:43:54.659Z,98950.31
2019-03-04T12:45:34.356Z,98950.76
2019-03-04T12:47:04.987Z,98946.45
2019-03-04T12:48:39.427Z,98940.63
2019-03-04T12:50:33.325Z,98936.30
2019-03-04T12:52:07.658Z,98937.05
2019-03-04T12:53:42.222Z,98938.66
2019-03-04T12:55:16.519Z,98928.45
2019-03-04T12:56:50.736Z,98925.81
2019-03-04T12:58:25.005Z,98870.86
2019-03-04T12:59:59.663Z,98923.36
2019-03-04T13:01:33.966Z,98924.68
2019-03-04T13:03:09.814Z,98912.16
2019-03-04T13:04:44.109Z,98919.23
2019-03-04T13:06:18.755Z,98914.75
2019-03-04T13:07:53.053Z,98907.33
2019-03-04T13:09:27.344Z,98902.34
2019-03-04T13:11:01.597Z,98908.08
2019-03-04T13:12:36.718Z,98909.16
2019-03-04T13:14:10.937Z,98903.77
2019-03-04T13:15:45.672Z,98903.53
2019-03-04T13:17:19.928Z,98896.91
2019-03-04T13:18:54.557Z,98894.42
2019-03-04T13:20:30.381Z,98887.13
2019-03-04T13:22:08.435Z,98892.48
2019-03-04T13:23:40.496Z,98882.47
2019-03-04T13:25:15.800Z,98883.22
2019-03-04T13:26:50.037Z,98886.53
2019-03-04T13:28:24.222Z,98881.57
2019-03-04T13:29:58.495Z,98885.00
2019-03-04T13:31:32.993Z,98872.25
2019-03-04T13:33:07.189Z,98883.38
2019-03-04T13:34:41.470Z,98873.16
2019-03-04T13:36:15.778Z,98874.06
2019-03-04T13:37:50.823Z,98873.16
2019-03-04T13:39:25.112Z,98873.23
2019-03-04T13:40:59.396Z,98861.20
2019-03-04T13:42:33.729Z,98861.17
2019-03-04T13:44:09.368Z,98857.95
2019-03-04T13:45:43.659Z,98858.03
2019-03-04T13:47:19.915Z,98855.97
2019-03-04T13:48:55.664Z,98854.02
2019-03-04T13:50:35.129Z,98856.42
2019-03-04T13:52:09.923Z,98849.55
2019-03-04T13:53:44.335Z,98859.70
2019-03-04T13:55:19.980Z,98858.20
2019-03-04T13:56:54.608Z,98857.83
2019-03-04T13:58:29.203Z,98858.14
2019-03-04T14:00:04.986Z,98857.27
2019-03-04T14:01:39.214Z,98855.13
2019-03-04T14:03:14.875Z,98852.92
2019-03-04T14:04:49.142Z,98859.16
2019-03-04T14:06:23.352Z,98852.00
2019-03-04T14:07:57.592Z,98854.62
2019-03-04T14:09:32.185Z,98846.89
2019-03-04T14:11:06.449Z,98849.59
2019-03-04T14:12:40.656Z,98848.46
2019-03-04T14:14:15.344Z,98843.73
2019-03-04T14:15:58.036Z,98842.91
2019-03-04T14:17:32.316Z,98830.97
2019-03-04T14:19:06.598Z,98831.06
2019-03-04T14:20:40.904Z,98825.91
2019-03-04T14:22:15.470Z,98828.51
2019-03-04T14:23:49.716Z,98822.17
2019-03-04T14:25:24.017Z,98826.35
2019-03-04T14:26:58.265Z,98819.69
2019-03-04T14:28:32.813Z,98816.89
2019-03-04T14:30:12.603Z,98818.53
2019-03-04T14:31:46.811Z,98818.56
2019-03-04T14:33:21.095Z,98817.48
2019-03-04T14:34:55.898Z,98805.88
2019-03-04T14:36:30.100Z,98805.31
2019-03-04T14:38:04.304Z,98806.91
2019-03-04T14:39:38.649Z,98800.58
2019-03-04T14:41:13.373Z,98803.05
2019-03-04T14:42:47.666Z,98744.14
2019-03-04T14:44:24.995Z,98802.31
2019-03-04T14:46:00.778Z,98803.52
2019-03-04T14:47:35.497Z,98801.14
2019-03-04T14:49:09.811Z,98803.63
2019-03-04T14:50:44.107Z,98801.31
2019-03-04T14:52:18.397Z,98801.91
2019-03-04T14:53:52.877Z,98800.12
2019-03-04T14:55:32.130Z,98799.70
2019-03-04T14:57:06.448Z,98791.91
2019-03-04T14:58:40.662Z,98787.00
2019-03-04T15:00:30.802Z,98786.28
2019-03-04T15:02:05.030Z,98784.10
2019-03-04T15:03:39.361Z,98780.05
2019-03-04T15:05:14.480Z,98780.69
2019-03-04T15:06:49.354Z,98779.84
2019-03-04T15:08:23.630Z,98772.32
2019-03-04T15:09:57.889Z,98776.09
2019-03-04T15:11:32.190Z,98780.13
2019-03-04T15:13:06.909Z,98720.20
2019-03-04T15:14:43.331Z,98720.74
2019-03-04T15:16:17.194Z,98774.82
2019-03-04T15:17:51.490Z,98779.17
2019-03-04T15:19:25.895Z,98768.47
2019-03-04T15:21:00.226Z,98775.52
2019-03-04T15:22:35.358Z,98771.20
2019-03-04T15:24:09.978Z,98773.27
2019-03-04T15:25:45.495Z,98768.84
2019-03-04T15:27:19.775Z,98766.53
2019-03-04T15:28:54.112Z,98767.09
2019-03-04T15:30:28.411Z,98764.44
2019-03-04T15:32:02.943Z,98766.03
2019-03-04T15:33:37.164Z,98758.03
2019-03-04T15:35:11.401Z,98761.89
2019-03-04T15:36:45.623Z,98761.33
2019-03-04T15:38:21.001Z,98763.30
2019-03-04T15:39:55.202Z,98762.09
2019-03-04T15:41:29.460Z,98764.61
2019-03-04T15:43:03.716Z,98762.84
2019-03-04T15:44:39.070Z,98763.52
2019-03-04T15:46:13.401Z,98762.80
2019-03-04T15:47:47.788Z,98766.31
2019-03-04T15:49:22.099Z,98765.11
2019-03-04T15:50:56.666Z,98766.48
2019-03-04T15:52:30.911Z,98771.08
2019-03-04T15:54:05.212Z,98760.25
2019-03-04T15:55:39.558Z,98762.78
2019-03-04T15:57:14.171Z,98759.16
2019-03-04T15:58:48.493Z,98759.24
2019-03-04T16:00:22.918Z,98765.75
2019-03-04T16:02:00.133Z,98765.14
2019-03-04T16:03:36.786Z,98760.14
2019-03-04T16:05:13.667Z,98766.77
2019-03-04T16:06:47.979Z,98763.53
2019-03-04T16:08:22.340Z,98766.75
2019-03-04T16:09:58.434Z,98765.23
2019-03-04T16:11:32.934Z,98760.59
2019-03-04T16:13:08.573Z,98767.22
2019-03-04T16:14:42.950Z,98759.32
2019-03-04T16:16:17.680Z,98758.77
2019-03-04T16:17:53.536Z,98759.02
2019-03-04T16:19:27.943Z,98764.80
2019-03-04T16:21:02.178Z,98766.86
2019-03-04T16:22:37.232Z,98765.25
2019-03-04T16:24:11.567Z,98763.28
2019-03-04T16:25:45.810Z,98767.19
2019-03-04T16:27:20.145Z,98762.65
2019-03-04T16:28:54.926Z,98764.74
2019-03-04T16:30:29.229Z,98761.00
2019-03-04T16:32:03.505Z,98761.73
2019-03-04T16:33:39.410Z,98762.47
2019-03-04T16:35:14.214Z,98765.52
2019-03-04T16:36:48.544Z,98765.41
2019-03-04T16:38:22.916Z,98770.16
2019-03-04T16:39:57.128Z,98773.33
2019-03-04T16:41:32.212Z,98771.75
2019-03-04T16:43:07.844Z,98767.25
2019-03-04T16:44:42.160Z,98767.89
2019-03-04T16:46:17.337Z,98767.66
2019-03-04T16:47:51.783Z,98769.51
2019-03-04T16:49:26.704Z,98772.97
2019-03-04T16:51:00.934Z,98772.55
2019-03-04T16:52:35.231Z,98772.50
2019-03-04T16:54:10.051Z,98768.56
2019-03-04T16:55:45.039Z,98777.63
2019-03-04T16:57:19.354Z,98775.25
2019-03-04T16:58:53.619Z,98768.84
2019-03-04T17:00:31.180Z,98773.17
2019-03-04T17:02:05.621Z,98772.23
2019-03-04T17:03:39.849Z,98769.50
2019-03-04T17:05:16.592Z,98768.88
2019-03-04T17:06:51.188Z,98773.73
2019-03-04T17:08:26.487Z,98775.16
2019-03-04T17:10:00.786Z,98779.12
2019-03-04T17:11:35.097Z,98782.86
2019-03-04T17:13:09.858Z,98784.27
2019-03-04T17:14:44.137Z,98784.07
2019-03-04T17:16:18.428Z,98785.03
2019-03-04T17:17:55.278Z,98782.26
2019-03-04T17:19:29.770Z,98789.92
2019-03-04T17:21:04.565Z,98796.53
2019-03-04T17:22:38.906Z,98795.34
2019-03-04T17:24:12.621Z,98793.76
2019-03-04T17:25:49.245Z,98792.26
2019-03-04T17:27:25.380Z,98792.80
2019-03-04T17:29:02.439Z,98793.53
2019-03-04T17:30:37.832Z,98797.27
2019-03-04T17:32:12.349Z,98798.23
2019-03-04T17:33:46.663Z,98791.88
2019-03-04T17:35:22.362Z,98795.17
2019-03-04T17:36:56.064Z,98792.09
2019-03-04T17:38:30.515Z,98789.44
2019-03-04T17:40:06.901Z,98797.47
2019-03-04T17:41:41.121Z,98791.48
2019-03-04T17:43:15.373Z,98793.49
2019-03-04T17:44:49.926Z,98793.56
2019-03-04T17:46:24.210Z,98790.45
2019-03-04T17:48:00.757Z,98793.16
2019-03-04T17:49:35.324Z,98796.91
2019-03-04T17:51:10.016Z,98791.25
2019-03-04T17:52:44.255Z,98790.04
2019-03-04T17:54:18.490Z,98797.11
2019-03-04T17:55:52.119Z,98793.20
2019-03-04T17:57:26.434Z,98790.91
2019-03-04T17:59:00.742Z,98787.23
2019-03-04T18:00:37.729Z,98789.47
2019-03-04T18:02:11.997Z,98788.94
2019-03-04T18:03:45.935Z,98787.26
2019-03-04T18:05:20.218Z,98787.99
2019-03-04T18:06:54.534Z,98785.59
2019-03-04T18:08:28.949Z,98785.33
2019-03-04T18:10:03.529Z,98781.84
2019-03-04T18:11:37.848Z,98783.16
2019-03-04T18:13:14.713Z,98776.72
2019-03-04T18:14:49.012Z,98777.70
2019-03-04T18:16:23.609Z,98770.48
2019-03-04T18:17:57.297Z,98776.25
2019-03-04T18:19:31.052Z,98769.26
2019-03-04T18:21:06.334Z,98778.28
2019-03-04T18:22:40.936Z,98778.80
2019-03-04T18:24:16.182Z,98774.16
2019-03-04T18:25:59.341Z,98776.98
2019-03-04T18:27:33.645Z,98770.84
2019-03-04T18:29:16.587Z,98781.91
2019-03-04T18:31:10.146Z,98778.02
2019-03-04T18:33:08.165Z,98788.98
2019-03-04T18:35:00.986Z,98784.20
2019-03-04T18:36:40.491Z,98784.80
2019-03-04T18:38:38.186Z,98779.61
2019-03-04T18:40:33.704Z,98780.23
2019-03-04T18:42:32.582Z,98779.91